Blankenberge, Belgium
Current Conditions -  °F | °C
As of 7:50 AM on Friday 28 Nov 2014 (Local Time) from EBOS Reporting Station
Clear Clear  
Wind Chill: 41°   Ceiling: Unl
Heat Index: 46°   Visibility: 4mi
Dew Point: 45°   Wind: 10mph
Humidity: 93%   Direction: 100°E
Pressure: 29.65"   Gusts: NA
Location:  51.31°N, 3.13°E
Report Text: EBOS 280650Z 10009KT 7000 NSC 08/07 Q1004 TEMPO 4000 BR
Loading
Personal Weather Stations






























Interactive Weather Map New forecast layout! Learn more

10-Day Weather Forecast

Advertisements
Track Severe Weather on mobile